sensor_id;sensor_type;location;lat;lon;timestamp;pressure;altitude;pressure_sealevel;temperature;humidity
71567;BME280;59403;47.456;19.120;2022-09-17T00:00:20;99586.41;;;14.40;95.39
71567;BME280;59403;47.456;19.120;2022-09-17T00:02:49;99584.34;;;14.35;95.49
71567;BME280;59403;47.456;19.120;2022-09-17T00:05:20;99570.62;;;14.38;95.28
71567;BME280;59403;47.456;19.120;2022-09-17T00:07:48;99574.50;;;14.42;95.17
71567;BME280;59403;47.456;19.120;2022-09-17T00:10:17;99562.38;;;14.27;94.89
71567;BME280;59403;47.456;19.120;2022-09-17T00:12:44;99577.38;;;14.34;95.84
71567;BME280;59403;47.456;19.120;2022-09-17T00:15:11;99588.87;;;14.35;95.84
71567;BME280;59403;47.456;19.120;2022-09-17T00:17:38;99590.88;;;14.26;95.03
71567;BME280;59403;47.456;19.120;2022-09-17T00:20:07;99585.69;;;14.25;95.37
71567;BME280;59403;47.456;19.120;2022-09-17T00:22:35;99589.19;;;14.25;95.13
71567;BME280;59403;47.456;19.120;2022-09-17T00:25:02;99583.66;;;14.20;94.75
71567;BME280;59403;47.456;19.120;2022-09-17T00:27:31;99588.38;;;14.25;94.47
71567;BME280;59403;47.456;19.120;2022-09-17T00:29:58;99585.47;;;14.20;95.61
71567;BME280;59403;47.456;19.120;2022-09-17T00:32:25;99582.63;;;14.21;94.87
71567;BME280;59403;47.456;19.120;2022-09-17T00:34:52;99581.63;;;14.22;95.37
71567;BME280;59403;47.456;19.120;2022-09-17T00:37:19;99571.53;;;14.18;96.08
71567;BME280;59403;47.456;19.120;2022-09-17T00:39:46;99566.41;;;14.16;95.69
71567;BME280;59403;47.456;19.120;2022-09-17T00:42:14;99570.94;;;14.16;96.21
71567;BME280;59403;47.456;19.120;2022-09-17T00:44:46;99560.44;;;14.08;95.55
71567;BME280;59403;47.456;19.120;2022-09-17T00:47:18;99570.53;;;14.19;96.17
71567;BME280;59403;47.456;19.120;2022-09-17T00:49:48;99551.06;;;14.18;95.97
71567;BME280;59403;47.456;19.120;2022-09-17T00:52:19;99542.03;;;14.13;96.17
71567;BME280;59403;47.456;19.120;2022-09-17T00:54:51;99533.47;;;14.17;96.24
71567;BME280;59403;47.456;19.120;2022-09-17T00:57:20;99525.62;;;14.03;97.31
71567;BME280;59403;47.456;19.120;2022-09-17T00:59:49;99542.44;;;14.16;96.30
71567;BME280;59403;47.456;19.120;2022-09-17T01:02:18;99538.16;;;14.15;96.42
71567;BME280;59403;47.456;19.120;2022-09-17T01:04:45;99541.25;;;14.19;96.27
71567;BME280;59403;47.456;19.120;2022-09-17T01:07:18;99535.28;;;14.17;96.12
71567;BME280;59403;47.456;19.120;2022-09-17T01:09:53;99530.16;;;14.15;96.38
71567;BME280;59403;47.456;19.120;2022-09-17T01:12:43;99534.25;;;14.18;96.93
71567;BME280;59403;47.456;19.120;2022-09-17T01:15:22;99525.47;;;14.17;96.54
71567;BME280;59403;47.456;19.120;2022-09-17T01:18:03;99526.47;;;14.16;96.66
71567;BME280;59403;47.456;19.120;2022-09-17T01:21:04;99525.06;;;14.14;97.42
71567;BME280;59403;47.456;19.120;2022-09-17T01:26:54;99532.00;;;14.08;96.74
71567;BME280;59403;47.456;19.120;2022-09-17T01:29:35;99536.28;;;14.09;96.81
71567;BME280;59403;47.456;19.120;2022-09-17T01:32:07;99533.63;;;14.09;96.72
71567;BME280;59403;47.456;19.120;2022-09-17T01:34:43;99533.81;;;14.01;95.77
71567;BME280;59403;47.456;19.120;2022-09-17T01:37:17;99539.97;;;14.08;96.59
71567;BME280;59403;47.456;19.120;2022-09-17T01:39:48;99548.59;;;14.04;95.60
71567;BME280;59403;47.456;19.120;2022-09-17T01:42:23;99558.19;;;13.98;94.75
71567;BME280;59403;47.456;19.120;2022-09-17T01:44:56;99561.25;;;14.02;94.26
71567;BME280;59403;47.456;19.120;2022-09-17T01:47:29;99545.84;;;13.84;94.95
71567;BME280;59403;47.456;19.120;2022-09-17T01:50:01;99557.16;;;13.99;94.21
71567;BME280;59403;47.456;19.120;2022-09-17T01:52:31;99570.44;;;13.93;94.95
71567;BME280;59403;47.456;19.120;2022-09-17T01:55:02;99567.78;;;13.93;94.23
71567;BME280;59403;47.456;19.120;2022-09-17T01:57:34;99567.97;;;13.91;93.94
71567;BME280;59403;47.456;19.120;2022-09-17T02:00:05;99571.28;;;13.93;92.85
71567;BME280;59403;47.456;19.120;2022-09-17T02:02:37;99567.34;;;13.89;92.98
71567;BME280;59403;47.456;19.120;2022-09-17T02:05:09;99577.34;;;13.81;91.36
71567;BME280;59403;47.456;19.120;2022-09-17T02:07:41;99565.47;;;13.83;90.28
71567;BME280;59403;47.456;19.120;2022-09-17T02:10:12;99572.25;;;13.86;89.92
71567;BME280;59403;47.456;19.120;2022-09-17T02:12:44;99562.81;;;13.83;90.04
71567;BME280;59403;47.456;19.120;2022-09-17T02:15:16;99552.00;;;13.85;91.09
71567;BME280;59403;47.456;19.120;2022-09-17T02:17:49;99554.03;;;13.89;90.94
71567;BME280;59403;47.456;19.120;2022-09-17T02:20:22;99549.69;;;13.82;92.64
71567;BME280;59403;47.456;19.120;2022-09-17T02:22:55;99555.03;;;13.82;91.07
71567;BME280;59403;47.456;19.120;2022-09-17T02:25:26;99546.59;;;13.72;90.80
71567;BME280;59403;47.456;19.120;2022-09-17T02:27:57;99549.69;;;13.75;90.12
71567;BME280;59403;47.456;19.120;2022-09-17T02:30:27;99535.34;;;13.76;89.21
71567;BME280;59403;47.456;19.120;2022-09-17T02:32:55;99545.22;;;13.82;89.49
71567;BME280;59403;47.456;19.120;2022-09-17T02:35:22;99543.75;;;13.80;90.44
71567;BME280;59403;47.456;19.120;2022-09-17T02:37:49;99541.88;;;13.67;92.13
71567;BME280;59403;47.456;19.120;2022-09-17T02:40:19;99547.41;;;13.72;89.73
71567;BME280;59403;47.456;19.120;2022-09-17T02:43:02;99525.50;;;13.70;89.55
71567;BME280;59403;47.456;19.120;2022-09-17T02:45:43;99530.41;;;13.73;89.48
71567;BME280;59403;47.456;19.120;2022-09-17T02:48:30;99539.25;;;13.74;89.20
71567;BME280;59403;47.456;19.120;2022-09-17T02:51:19;99523.03;;;13.68;89.98
71567;BME280;59403;47.456;19.120;2022-09-17T02:53:55;99521.16;;;13.62;89.65
71567;BME280;59403;47.456;19.120;2022-09-17T02:56:30;99510.16;;;13.65;88.40
71567;BME280;59403;47.456;19.120;2022-09-17T02:59:07;99499.06;;;13.62;88.86
71567;BME280;59403;47.456;19.120;2022-09-17T03:01:41;99493.56;;;13.63;89.00
71567;BME280;59403;47.456;19.120;2022-09-17T03:04:12;99491.91;;;13.62;88.73
71567;BME280;59403;47.456;19.120;2022-09-17T03:06:41;99497.81;;;13.51;86.32
71567;BME280;59403;47.456;19.120;2022-09-17T03:09:10;99485.34;;;13.58;87.58
71567;BME280;59403;47.456;19.120;2022-09-17T03:11:37;99494.34;;;13.57;88.00
71567;BME280;59403;47.456;19.120;2022-09-17T03:14:04;99490.03;;;13.56;89.11
71567;BME280;59403;47.456;19.120;2022-09-17T03:16:31;99487.16;;;13.51;89.09
71567;BME280;59403;47.456;19.120;2022-09-17T03:18:58;99483.25;;;13.47;89.53
71567;BME280;59403;47.456;19.120;2022-09-17T03:21:26;99477.69;;;13.42;89.74
71567;BME280;59403;47.456;19.120;2022-09-17T03:23:53;99473.22;;;13.43;88.55
71567;BME280;59403;47.456;19.120;2022-09-17T03:26:20;99461.13;;;13.47;87.73
71567;BME280;59403;47.456;19.120;2022-09-17T03:28:47;99446.97;;;13.40;87.84
71567;BME280;59403;47.456;19.120;2022-09-17T03:31:14;99434.31;;;13.42;88.55
71567;BME280;59403;47.456;19.120;2022-09-17T03:33:41;99424.91;;;13.39;88.91
71567;BME280;59403;47.456;19.120;2022-09-17T03:36:08;99429.81;;;13.42;86.86
71567;BME280;59403;47.456;19.120;2022-09-17T03:38:36;99415.28;;;13.38;87.12
71567;BME280;59403;47.456;19.120;2022-09-17T03:41:05;99401.56;;;13.41;86.14
71567;BME280;59403;47.456;19.120;2022-09-17T03:43:32;99406.09;;;13.41;87.26
71567;BME280;59403;47.456;19.120;2022-09-17T03:45:59;99407.50;;;13.43;86.78
71567;BME280;59403;47.456;19.120;2022-09-17T03:48:26;99403.81;;;13.38;86.95
71567;BME280;59403;47.456;19.120;2022-09-17T03:50:54;99397.47;;;13.39;85.75
71567;BME280;59403;47.456;19.120;2022-09-17T03:53:21;99404.63;;;13.38;86.67
71567;BME280;59403;47.456;19.120;2022-09-17T03:55:50;99414.87;;;13.41;86.67
71567;BME280;59403;47.456;19.120;2022-09-17T03:58:17;99398.66;;;13.30;86.69
71567;BME280;59403;47.456;19.120;2022-09-17T04:00:44;99404.63;;;13.32;87.00
71567;BME280;59403;47.456;19.120;2022-09-17T04:03:18;99405.87;;;13.36;87.54
71567;BME280;59403;47.456;19.120;2022-09-17T04:05:46;99414.63;;;13.30;85.89
71567;BME280;59403;47.456;19.120;2022-09-17T04:08:13;99417.28;;;13.30;85.71
71567;BME280;59403;47.456;19.120;2022-09-17T04:10:40;99427.28;;;13.28;86.30
71567;BME280;59403;47.456;19.120;2022-09-17T04:13:09;99419.50;;;13.26;86.04
71567;BME280;59403;47.456;19.120;2022-09-17T04:15:36;99433.25;;;13.30;86.50
71567;BME280;59403;47.456;19.120;2022-09-17T04:18:03;99419.50;;;13.26;86.20
71567;BME280;59403;47.456;19.120;2022-09-17T04:20:30;99429.72;;;13.23;86.64
71567;BME280;59403;47.456;19.120;2022-09-17T04:22:57;99423.78;;;13.21;85.42
71567;BME280;59403;47.456;19.120;2022-09-17T04:25:24;99428.31;;;13.20;84.69
71567;BME280;59403;47.456;19.120;2022-09-17T04:27:51;99417.25;;;13.17;84.39
71567;BME280;59403;47.456;19.120;2022-09-17T04:30:20;99412.34;;;13.20;84.55
71567;BME280;59403;47.456;19.120;2022-09-17T04:32:47;99413.16;;;13.21;84.33
71567;BME280;59403;47.456;19.120;2022-09-17T04:35:14;99421.94;;;13.21;83.92
71567;BME280;59403;47.456;19.120;2022-09-17T04:37:41;99419.09;;;13.23;84.71
71567;BME280;59403;47.456;19.120;2022-09-17T04:40:09;99414.37;;;13.18;83.40
71567;BME280;59403;47.456;19.120;2022-09-17T04:42:36;99416.41;;;13.16;84.06
71567;BME280;59403;47.456;19.120;2022-09-17T04:45:03;99409.25;;;13.17;83.43
71567;BME280;59403;47.456;19.120;2022-09-17T04:47:32;99400.44;;;13.10;84.91
71567;BME280;59403;47.456;19.120;2022-09-17T04:49:59;99400.84;;;13.13;84.32
71567;BME280;59403;47.456;19.120;2022-09-17T04:52:25;99396.34;;;13.14;84.15
71567;BME280;59403;47.456;19.120;2022-09-17T04:54:52;99402.88;;;13.11;85.31
71567;BME280;59403;47.456;19.120;2022-09-17T04:57:19;99392.63;;;13.08;84.25
71567;BME280;59403;47.456;19.120;2022-09-17T04:59:48;99385.69;;;13.07;84.82
71567;BME280;59403;47.456;19.120;2022-09-17T05:02:14;99405.78;;;13.16;84.87
71567;BME280;59403;47.456;19.120;2022-09-17T05:04:43;99408.84;;;13.13;85.67
71567;BME280;59403;47.456;19.120;2022-09-17T05:07:09;99406.75;;;13.09;86.10
71567;BME280;59403;47.456;19.120;2022-09-17T05:09:36;99400.44;;;13.10;86.06
71567;BME280;59403;47.456;19.120;2022-09-17T05:12:03;99411.06;;;13.10;85.61
71567;BME280;59403;47.456;19.120;2022-09-17T05:14:31;99410.25;;;13.16;85.58
71567;BME280;59403;47.456;19.120;2022-09-17T05:16:58;99413.31;;;13.13;85.97
71567;BME280;59403;47.456;19.120;2022-09-17T05:19:25;99417.03;;;13.18;86.75
71567;BME280;59403;47.456;19.120;2022-09-17T05:21:53;99420.91;;;13.16;86.14
71567;BME280;59403;47.456;19.120;2022-09-17T05:24:20;99420.91;;;13.16;85.75
71567;BME280;59403;47.456;19.120;2022-09-17T05:26:47;99433.34;;;13.15;85.44
71567;BME280;59403;47.456;19.120;2022-09-17T05:29:14;99436.63;;;13.11;85.38
71567;BME280;59403;47.456;19.120;2022-09-17T05:31:42;99435.59;;;13.12;85.67
71567;BME280;59403;47.456;19.120;2022-09-17T05:34:09;99443.81;;;13.17;85.30
71567;BME280;59403;47.456;19.120;2022-09-17T05:36:36;99444.25;;;13.20;85.67
71567;BME280;59403;47.456;19.120;2022-09-17T05:39:04;99446.66;;;13.15;85.57
71567;BME280;59403;47.456;19.120;2022-09-17T05:41:34;99442.38;;;13.21;85.23
71567;BME280;59403;47.456;19.120;2022-09-17T05:44:04;99439.53;;;13.22;84.46
71567;BME280;59403;47.456;19.120;2022-09-17T05:46:33;99444.84;;;13.22;84.13
71567;BME280;59403;47.456;19.120;2022-09-17T05:49:15;99421.69;;;13.10;84.70
71567;BME280;59403;47.456;19.120;2022-09-17T05:51:44;99452.03;;;13.22;85.56
71567;BME280;59403;47.456;19.120;2022-09-17T05:54:14;99454.31;;;13.31;84.85
71567;BME280;59403;47.456;19.120;2022-09-17T05:56:44;99463.12;;;13.32;84.60
71567;BME280;59403;47.456;19.120;2022-09-17T05:59:10;99462.13;;;13.39;84.62
71567;BME280;59403;47.456;19.120;2022-09-17T06:01:39;99463.97;;;13.39;85.91
71567;BME280;59403;47.456;19.120;2022-09-17T06:04:07;99460.87;;;13.35;84.31
71567;BME280;59403;47.456;19.120;2022-09-17T06:06:34;99470.34;;;13.44;84.42
71567;BME280;59403;47.456;19.120;2022-09-17T06:09:02;99486.09;;;13.46;84.67
71567;BME280;59403;47.456;19.120;2022-09-17T06:11:30;99481.63;;;13.46;85.07
71567;BME280;59403;47.456;19.120;2022-09-17T06:13:57;99477.28;;;13.39;86.42
71567;BME280;59403;47.456;19.120;2022-09-17T06:16:27;99467.19;;;13.34;85.29
71567;BME280;59403;47.456;19.120;2022-09-17T06:18:54;99468.13;;;13.48;85.22
71567;BME280;59403;47.456;19.120;2022-09-17T06:21:21;99454.38;;;13.44;83.63
71567;BME280;59403;47.456;19.120;2022-09-17T06:23:49;99455.84;;;13.53;84.51
71567;BME280;59403;47.456;19.120;2022-09-17T06:26:16;99450.34;;;13.55;84.42
71567;BME280;59403;47.456;19.120;2022-09-17T06:28:45;99453.00;;;13.55;84.10
71567;BME280;59403;47.456;19.120;2022-09-17T06:31:12;99464.06;;;13.58;83.54
71567;BME280;59403;47.456;19.120;2022-09-17T06:33:39;99462.41;;;13.64;83.16
71567;BME280;59403;47.456;19.120;2022-09-17T06:36:07;99470.03;;;13.67;81.92
71567;BME280;59403;47.456;19.120;2022-09-17T06:38:35;99470.81;;;13.67;81.73
71567;BME280;59403;47.456;19.120;2022-09-17T06:41:03;99468.59;;;13.71;82.27
71567;BME280;59403;47.456;19.120;2022-09-17T06:43:30;99476.38;;;13.73;82.48
71567;BME280;59403;47.456;19.120;2022-09-17T06:46:00;99457.72;;;13.66;81.03
71567;BME280;59403;47.456;19.120;2022-09-17T06:48:29;99462.41;;;13.64;81.27
71567;BME280;59403;47.456;19.120;2022-09-17T06:51:01;99469.81;;;13.62;81.63
71567;BME280;59403;47.456;19.120;2022-09-17T06:53:28;99472.41;;;13.55;81.17
71567;BME280;59403;47.456;19.120;2022-09-17T06:55:59;99471.00;;;13.53;81.25
71567;BME280;59403;47.456;19.120;2022-09-17T06:58:29;99477.50;;;13.44;81.21
71567;BME280;59403;47.456;19.120;2022-09-17T07:00:59;99486.09;;;13.46;80.71
71567;BME280;59403;47.456;19.120;2022-09-17T07:03:26;99490.78;;;13.37;80.44
71567;BME280;59403;47.456;19.120;2022-09-17T07:05:55;99476.41;;;13.32;80.13
71567;BME280;59403;47.456;19.120;2022-09-17T07:08:22;99495.88;;;13.39;81.26
71567;BME280;59403;47.456;19.120;2022-09-17T07:10:50;99494.22;;;13.38;81.40
71567;BME280;59403;47.456;19.120;2022-09-17T07:13:17;99481.97;;;13.37;80.23
71567;BME280;59403;47.456;19.120;2022-09-17T07:15:51;99483.41;;;13.39;80.08
71567;BME280;59403;47.456;19.120;2022-09-17T07:18:20;99495.09;;;13.45;80.39
71567;BME280;59403;47.456;19.120;2022-09-17T07:20:52;99491.81;;;13.43;79.63
71567;BME280;59403;47.456;19.120;2022-09-17T07:23:20;99488.34;;;13.49;80.48
71567;BME280;59403;47.456;19.120;2022-09-17T07:25:51;99482.63;;;13.52;80.26
71567;BME280;59403;47.456;19.120;2022-09-17T07:28:18;99472.81;;;13.52;79.48
71567;BME280;59403;47.456;19.120;2022-09-17T07:30:45;99480.81;;;13.59;79.30
71567;BME280;59403;47.456;19.120;2022-09-17T07:33:14;99480.25;;;13.63;79.46
71567;BME280;59403;47.456;19.120;2022-09-17T07:35:42;99486.41;;;13.71;77.67
71567;BME280;59403;47.456;19.120;2022-09-17T07:38:10;99474.56;;;13.80;77.51
71567;BME280;59403;47.456;19.120;2022-09-17T07:40:37;99470.28;;;13.85;77.14
71567;BME280;59403;47.456;19.120;2022-09-17T07:43:04;99472.16;;;13.91;76.43
71567;BME280;59403;47.456;19.120;2022-09-17T07:45:33;99481.19;;;13.97;77.26
71567;BME280;59403;47.456;19.120;2022-09-17T07:48:01;99490.84;;;14.11;77.22
71567;BME280;59403;47.456;19.120;2022-09-17T07:50:28;99497.19;;;14.16;77.02
71567;BME280;59403;47.456;19.120;2022-09-17T07:52:59;99493.31;;;14.19;76.71
71567;BME280;59403;47.456;19.120;2022-09-17T07:55:37;99498.84;;;14.24;76.06
71567;BME280;59403;47.456;19.120;2022-09-17T07:58:04;99501.94;;;14.21;75.43
71567;BME280;59403;47.456;19.120;2022-09-17T08:00:34;99493.94;;;14.21;75.84
71567;BME280;59403;47.456;19.120;2022-09-17T08:03:01;99484.50;;;14.25;76.86
71567;BME280;59403;47.456;19.120;2022-09-17T08:05:28;99474.28;;;14.28;73.93
71567;BME280;59403;47.456;19.120;2022-09-17T08:07:55;99481.47;;;14.34;74.47
71567;BME280;59403;47.456;19.120;2022-09-17T08:10:23;99491.94;;;14.42;75.60
71567;BME280;59403;47.456;19.120;2022-09-17T08:12:54;99492.97;;;14.35;72.93
71567;BME280;59403;47.456;19.120;2022-09-17T08:15:22;99508.13;;;14.28;71.89
71567;BME280;59403;47.456;19.120;2022-09-17T08:17:49;99514.28;;;14.35;73.10
71567;BME280;59403;47.456;19.120;2022-09-17T08:20:16;99528.22;;;14.43;74.85
71567;BME280;59403;47.456;19.120;2022-09-17T08:22:43;99533.12;;;14.46;74.62
71567;BME280;59403;47.456;19.120;2022-09-17T08:25:10;99536.41;;;14.42;73.59
71567;BME280;59403;47.456;19.120;2022-09-17T08:27:39;99534.56;;;14.42;73.37
71567;BME280;59403;47.456;19.120;2022-09-17T08:30:07;99531.09;;;14.42;73.30
71567;BME280;59403;47.456;19.120;2022-09-17T08:32:34;99528.44;;;14.48;72.98
71567;BME280;59403;47.456;19.120;2022-09-17T08:35:01;99525.75;;;14.48;73.88
71567;BME280;59403;47.456;19.120;2022-09-17T08:37:29;99524.09;;;14.41;72.24
71567;BME280;59403;47.456;19.120;2022-09-17T08:39:56;99524.72;;;14.43;72.97
71567;BME280;59403;47.456;19.120;2022-09-17T08:42:29;99519.81;;;14.53;74.65
71567;BME280;59403;47.456;19.120;2022-09-17T08:45:01;99538.25;;;14.54;73.17
71567;BME280;59403;47.456;19.120;2022-09-17T08:47:32;99534.19;;;14.58;72.33
71567;BME280;59403;47.456;19.120;2022-09-17T08:50:03;99522.88;;;14.63;72.48
71567;BME280;59403;47.456;19.120;2022-09-17T08:52:51;99513.91;;;14.64;72.58
71567;BME280;59403;47.456;19.120;2022-09-17T08:55:29;99512.66;;;14.53;70.50
71567;BME280;59403;47.456;19.120;2022-09-17T08:58:09;99516.34;;;14.52;71.18
71567;BME280;59403;47.456;19.120;2022-09-17T09:00:55;99515.31;;;14.47;71.99
71567;BME280;59403;47.456;19.120;2022-09-17T09:03:33;99519.59;;;14.48;71.12
71567;BME280;59403;47.456;19.120;2022-09-17T09:06:06;99519.41;;;14.36;71.16
71567;BME280;59403;47.456;19.120;2022-09-17T09:08:36;99520.44;;;14.42;74.04
71567;BME280;59403;47.456;19.120;2022-09-17T09:11:10;99524.53;;;14.38;71.38
71567;BME280;59403;47.456;19.120;2022-09-17T09:13:42;99533.72;;;14.35;72.37
71567;BME280;59403;47.456;19.120;2022-09-17T09:16:14;99536.37;;;14.29;72.34
71567;BME280;59403;47.456;19.120;2022-09-17T09:18:43;99531.47;;;14.26;73.27
71567;BME280;59403;47.456;19.120;2022-09-17T09:21:24;99535.91;;;14.19;75.14
71567;BME280;59403;47.456;19.120;2022-09-17T09:23:53;99544.13;;;14.17;74.94
71567;BME280;59403;47.456;19.120;2022-09-17T09:26:28;99532.81;;;14.09;73.90
71567;BME280;59403;47.456;19.120;2022-09-17T09:29:03;99533.47;;;14.24;74.90
71567;BME280;59403;47.456;19.120;2022-09-17T09:31:54;99529.00;;;14.31;74.48
71567;BME280;59403;47.456;19.120;2022-09-17T09:34:25;99527.38;;;14.36;73.76
71567;BME280;59403;47.456;19.120;2022-09-17T09:39:26;99531.69;;;14.37;73.98
71567;BME280;59403;47.456;19.120;2022-09-17T09:42:04;99535.19;;;14.44;73.46
71567;BME280;59403;47.456;19.120;2022-09-17T09:44:35;99523.72;;;14.63;73.67
71567;BME280;59403;47.456;19.120;2022-09-17T09:47:18;99531.72;;;14.63;73.88
71567;BME280;59403;47.456;19.120;2022-09-17T09:50:08;99538.50;;;14.66;73.71
71567;BME280;59403;47.456;19.120;2022-09-17T09:52:51;99545.44;;;14.73;74.56
71567;BME280;59403;47.456;19.120;2022-09-17T09:55:35;99537.28;;;14.75;73.70
71567;BME280;59403;47.456;19.120;2022-09-17T09:58:15;99537.47;;;14.67;72.22
71567;BME280;59403;47.456;19.120;2022-09-17T10:00:43;99535.00;;;14.65;72.94
71567;BME280;59403;47.456;19.120;2022-09-17T10:03:15;99549.53;;;14.50;71.99
71567;BME280;59403;47.456;19.120;2022-09-17T10:05:52;99556.69;;;14.36;71.97
71567;BME280;59403;47.456;19.120;2022-09-17T10:08:19;99562.03;;;14.43;72.72
71567;BME280;59403;47.456;19.120;2022-09-17T10:10:54;99552.19;;;14.43;73.11
71567;BME280;59403;47.456;19.120;2022-09-17T10:13:22;99537.25;;;14.49;72.52
71567;BME280;59403;47.456;19.120;2022-09-17T10:15:49;99515.53;;;14.58;72.82
71567;BME280;59403;47.456;19.120;2022-09-17T10:18:19;99512.47;;;14.74;72.70
71567;BME280;59403;47.456;19.120;2022-09-17T10:20:57;99521.69;;;14.72;72.34
71567;BME280;59403;47.456;19.120;2022-09-17T10:23:26;99516.16;;;14.60;72.66
71567;BME280;59403;47.456;19.120;2022-09-17T10:25:54;99520.44;;;14.55;71.81
71567;BME280;59403;47.456;19.120;2022-09-17T10:28:35;99516.53;;;14.51;71.19
71567;BME280;59403;47.456;19.120;2022-09-17T10:31:05;99509.56;;;14.56;70.86
71567;BME280;59403;47.456;19.120;2022-09-17T10:33:39;99487.62;;;14.48;70.34
71567;BME280;59403;47.456;19.120;2022-09-17T10:36:16;99462.22;;;14.58;71.34
71567;BME280;59403;47.456;19.120;2022-09-17T10:38:47;99455.66;;;14.54;70.49
71567;BME280;59403;47.456;19.120;2022-09-17T10:41:17;99459.56;;;14.65;72.89
71567;BME280;59403;47.456;19.120;2022-09-17T10:43:47;99476.56;;;14.70;72.52
71567;BME280;59403;47.456;19.120;2022-09-17T10:46:17;99492.78;;;14.56;71.37
71567;BME280;59403;47.456;19.120;2022-09-17T10:48:55;99484.38;;;14.52;71.13
71567;BME280;59403;47.456;19.120;2022-09-17T10:51:24;99479.84;;;14.53;70.69
71567;BME280;59403;47.456;19.120;2022-09-17T10:54:04;99461.00;;;14.48;69.69
71567;BME280;59403;47.456;19.120;2022-09-17T10:56:34;99447.06;;;14.52;68.51
71567;BME280;59403;47.456;19.120;2022-09-17T10:59:13;99431.88;;;14.53;68.58
71567;BME280;59403;47.456;19.120;2022-09-17T11:01:52;99423.88;;;14.59;66.78
71567;BME280;59403;47.456;19.120;2022-09-17T11:04:30;99401.53;;;14.73;66.05
71567;BME280;59403;47.456;19.120;2022-09-17T11:07:32;99384.94;;;14.78;66.14
71567;BME280;59403;47.456;19.120;2022-09-17T11:10:12;99406.00;;;14.93;65.80
71567;BME280;59403;47.456;19.120;2022-09-17T11:12:56;99423.25;;;14.77;65.66
71567;BME280;59403;47.456;19.120;2022-09-17T11:15:34;99446.22;;;14.65;64.54
71567;BME280;59403;47.456;19.120;2022-09-17T11:18:34;99461.19;;;14.59;66.14
71567;BME280;59403;47.456;19.120;2022-09-17T11:21:28;99442.75;;;14.45;64.22
71567;BME280;59403;47.456;19.120;2022-09-17T11:24:22;99437.81;;;14.35;63.11
71567;BME280;59403;47.456;19.120;2022-09-17T11:27:00;99443.78;;;14.44;64.04
71567;BME280;59403;47.456;19.120;2022-09-17T11:29:45;99479.03;;;14.46;65.33
71567;BME280;59403;47.456;19.120;2022-09-17T11:32:28;99489.06;;;14.37;64.35
71567;BME280;59403;47.456;19.120;2022-09-17T11:35:08;99475.31;;;14.34;64.29
71567;BME280;59403;47.456;19.120;2022-09-17T11:37:41;99460.59;;;14.31;63.33
71567;BME280;59403;47.456;19.120;2022-09-17T11:40:18;99456.25;;;14.30;63.02
71567;BME280;59403;47.456;19.120;2022-09-17T11:42:49;99453.41;;;14.32;63.04
71567;BME280;59403;47.456;19.120;2022-09-17T11:45:22;99446.66;;;14.42;65.08
71567;BME280;59403;47.456;19.120;2022-09-17T11:47:55;99426.38;;;14.35;62.92
71567;BME280;59403;47.456;19.120;2022-09-17T11:50:28;99431.50;;;14.36;61.69
71567;BME280;59403;47.456;19.120;2022-09-17T11:53:05;99419.41;;;14.27;61.80
71567;BME280;59403;47.456;19.120;2022-09-17T11:55:39;99409.34;;;14.23;61.94
71567;BME280;59403;47.456;19.120;2022-09-17T11:58:12;99400.09;;;14.19;63.09
71567;BME280;59403;47.456;19.120;2022-09-17T12:00:44;99388.81;;;14.23;61.66
71567;BME280;59403;47.456;19.120;2022-09-17T12:03:19;99388.03;;;14.23;61.08
71567;BME280;59403;47.456;19.120;2022-09-17T12:05:51;99363.69;;;14.26;61.75
71567;BME280;59403;47.456;19.120;2022-09-17T12:08:23;99336.19;;;14.32;62.95
71567;BME280;59403;47.456;19.120;2022-09-17T12:10:56;99333.34;;;14.33;62.94
71567;BME280;59403;47.456;19.120;2022-09-17T12:13:31;99337.44;;;14.29;61.60
71567;BME280;59403;47.456;19.120;2022-09-17T12:16:11;99353.84;;;14.26;62.31
71567;BME280;59403;47.456;19.120;2022-09-17T12:18:47;99353.00;;;14.19;61.70
71567;BME280;59403;47.456;19.120;2022-09-17T12:21:21;99350.12;;;14.21;63.91
71567;BME280;59403;47.456;19.120;2022-09-17T12:23:55;99335.16;;;14.13;60.79
71567;BME280;59403;47.456;19.120;2022-09-17T12:26:33;99334.97;;;14.15;60.95
71567;BME280;59403;47.456;19.120;2022-09-17T12:29:11;99331.50;;;14.14;62.88
71567;BME280;59403;47.456;19.120;2022-09-17T12:31:52;99320.63;;;14.09;62.83
71567;BME280;59403;47.456;19.120;2022-09-17T12:34:34;99308.13;;;14.10;63.19
71567;BME280;59403;47.456;19.120;2022-09-17T12:37:10;99303.22;;;14.07;62.94
71567;BME280;59403;47.456;19.120;2022-09-17T12:39:57;99290.72;;;14.01;63.21
71567;BME280;59403;47.456;19.120;2022-09-17T12:42:42;99312.22;;;14.19;62.41
71567;BME280;59403;47.456;19.120;2022-09-17T12:45:33;99306.28;;;14.23;62.07
71567;BME280;59403;47.456;19.120;2022-09-17T12:48:27;99304.25;;;14.32;62.49
71567;BME280;59403;47.456;19.120;2022-09-17T12:51:09;99301.16;;;14.41;62.58
71567;BME280;59403;47.456;19.120;2022-09-17T12:53:42;99311.00;;;14.41;63.96
71567;BME280;59403;47.456;19.120;2022-09-17T12:56:23;99321.66;;;14.41;63.76
71567;BME280;59403;47.456;19.120;2022-09-17T12:59:06;99326.78;;;14.29;62.43
71567;BME280;59403;47.456;19.120;2022-09-17T13:01:39;99315.53;;;14.27;62.76
71567;BME280;59403;47.456;19.120;2022-09-17T13:04:25;99314.50;;;14.28;63.15
71567;BME280;59403;47.456;19.120;2022-09-17T13:10:40;99324.13;;;14.29;65.17
71567;BME280;59403;47.456;19.120;2022-09-17T13:13:28;99331.50;;;14.21;64.40
71567;BME280;59403;47.456;19.120;2022-09-17T13:16:06;99318.97;;;14.21;65.61
71567;BME280;59403;47.456;19.120;2022-09-17T13:18:44;99312.03;;;14.20;66.85
71567;BME280;59403;47.456;19.120;2022-09-17T13:21:18;99310.59;;;14.05;65.00
71567;BME280;59403;47.456;19.120;2022-09-17T13:23:51;99306.91;;;14.06;65.95